createdAt,value
2019-03-04T00:00:55.391Z,95706.41
2019-03-04T00:03:24.161Z,95713.50
2019-03-04T00:05:52.821Z,95711.41
2019-03-04T00:08:40.680Z,95713.82
2019-03-04T00:11:09.318Z,95716.73
2019-03-04T00:13:38.058Z,95709.42
2019-03-04T00:16:06.813Z,95707.47
2019-03-04T00:18:54.834Z,95695.37
2019-03-04T00:21:42.650Z,95697.62
2019-03-04T00:24:11.323Z,95689.17
2019-03-04T00:26:59.317Z,95690.70
2019-03-04T00:29:27.991Z,95674.64
2019-03-04T00:31:56.747Z,95673.36
2019-03-04T00:34:25.475Z,95674.07
2019-03-04T00:36:54.317Z,95664.81
2019-03-04T00:41:57.085Z,95656.59
2019-03-04T00:44:25.809Z,95647.91
2019-03-04T00:46:54.395Z,95641.21
2019-03-04T00:49:23.022Z,95639.98
2019-03-04T00:51:51.715Z,95633.19
2019-03-04T00:55:00.408Z,95635.00
2019-03-04T00:57:29.137Z,95625.36
2019-03-04T00:59:57.737Z,95628.03
2019-03-04T01:02:46.097Z,95623.94
2019-03-04T01:05:54.620Z,95615.31
2019-03-04T01:08:42.538Z,95611.63
2019-03-04T01:11:30.446Z,95606.60
2019-03-04T01:13:59.141Z,95609.22
2019-03-04T01:16:27.723Z,95605.09
2019-03-04T01:19:15.682Z,95598.28
2019-03-04T01:22:03.507Z,95590.84
2019-03-04T01:24:32.149Z,95598.09
2019-03-04T01:27:00.784Z,95583.95
2019-03-04T01:29:29.525Z,95570.89
2019-03-04T01:31:58.235Z,95563.44
2019-03-04T01:34:26.859Z,95562.99
2019-03-04T01:36:55.544Z,95555.88
2019-03-04T01:39:24.282Z,95552.52
2019-03-04T01:41:52.982Z,95545.95
2019-03-04T01:44:21.735Z,95544.12
2019-03-04T01:46:50.440Z,95538.11
2019-03-04T01:49:19.244Z,95537.68
2019-03-04T01:51:47.892Z,95528.40
2019-03-04T01:54:16.566Z,95519.53
2019-03-04T01:56:45.251Z,95526.19
2019-03-04T01:59:14.003Z,95518.56
2019-03-04T02:01:42.590Z,95516.23
2019-03-04T02:04:30.447Z,95513.98
2019-03-04T02:07:18.273Z,95504.48
2019-03-04T02:09:46.891Z,95501.59
2019-03-04T02:12:15.534Z,95501.03
2019-03-04T02:14:44.169Z,95492.09
2019-03-04T02:17:12.864Z,95481.98
2019-03-04T02:19:41.542Z,95472.63
2019-03-04T02:22:10.198Z,95471.19
2019-03-04T02:24:38.968Z,95454.91
2019-03-04T02:27:07.729Z,95454.34
2019-03-04T02:29:36.622Z,95457.92
2019-03-04T02:32:24.441Z,95443.73
2019-03-04T02:34:53.142Z,95443.33
2019-03-04T02:37:21.817Z,95443.23
2019-03-04T02:40:09.713Z,95443.77
2019-03-04T02:42:38.405Z,95439.08
2019-03-04T02:45:26.387Z,95440.90
2019-03-04T02:48:14.257Z,95447.19
2019-03-04T02:51:02.095Z,95451.88
2019-03-04T02:53:30.704Z,95460.19
2019-03-04T02:56:18.599Z,95455.97
2019-03-04T03:01:21.139Z,95441.17
2019-03-04T03:03:49.830Z,95433.59
2019-03-04T03:06:18.607Z,95428.02
2019-03-04T03:08:47.334Z,95428.33
2019-03-04T03:11:35.153Z,95427.01
2019-03-04T03:14:03.791Z,95414.27
2019-03-04T03:16:32.561Z,95415.91
2019-03-04T03:19:01.132Z,95396.28
2019-03-04T03:21:29.821Z,95393.77
2019-03-04T03:23:59.507Z,95390.17
2019-03-04T03:26:28.885Z,95399.95
2019-03-04T03:28:57.493Z,95389.64
2019-03-04T03:31:26.239Z,95379.86
2019-03-04T03:33:55.079Z,95364.02
2019-03-04T03:36:23.695Z,95363.91
2019-03-04T03:39:11.571Z,95362.19
2019-03-04T03:41:59.337Z,95365.19
2019-03-04T03:44:28.118Z,95363.16
2019-03-04T03:49:50.011Z,95343.47
2019-03-04T03:52:18.646Z,95343.20
2019-03-04T03:54:47.431Z,95347.36
2019-03-04T03:57:16.074Z,95339.48
2019-03-04T03:59:44.849Z,95329.98
2019-03-04T04:02:13.511Z,95327.39
2019-03-04T04:04:42.144Z,95332.61
2019-03-04T04:07:10.980Z,95335.31
2019-03-04T04:09:39.613Z,95332.98
2019-03-04T04:12:08.320Z,95338.73
2019-03-04T04:14:37.009Z,95332.69
2019-03-04T04:17:24.781Z,95317.55
2019-03-04T04:19:53.492Z,95306.13
2019-03-04T04:22:22.127Z,95297.50
2019-03-04T04:25:10.016Z,95293.06
2019-03-04T04:27:38.671Z,95291.97
2019-03-04T04:30:47.125Z,95281.45
2019-03-04T04:33:15.816Z,95272.23
2019-03-04T04:35:44.504Z,95268.53
2019-03-04T04:38:32.437Z,95264.42
2019-03-04T04:41:01.008Z,95254.13
2019-03-04T04:43:29.888Z,95253.33
2019-03-04T04:48:46.288Z,95234.59
2019-03-04T04:51:14.940Z,95228.62
2019-03-04T04:53:43.596Z,95232.80
2019-03-04T04:56:12.240Z,95229.82
2019-03-04T04:58:40.932Z,95228.12
2019-03-04T05:01:28.985Z,95217.24
2019-03-04T05:03:57.615Z,95213.22
2019-03-04T05:07:06.081Z,95195.18
2019-03-04T05:09:34.755Z,95178.66
2019-03-04T05:12:03.504Z,95166.17
2019-03-04T05:15:11.997Z,95165.98
2019-03-04T05:17:40.750Z,95157.31
2019-03-04T05:20:49.178Z,95129.15
2019-03-04T05:23:17.861Z,95114.27
2019-03-04T05:26:05.742Z,95096.62
2019-03-04T05:28:53.699Z,95085.23
2019-03-04T05:31:22.334Z,95075.13
2019-03-04T05:33:51.214Z,95072.00
2019-03-04T05:39:16.230Z,95059.97
2019-03-04T05:42:03.967Z,95064.83
2019-03-04T05:47:08.808Z,95056.89
2019-03-04T05:49:56.771Z,95049.66
2019-03-04T05:52:25.406Z,95048.97
2019-03-04T05:54:54.068Z,95031.52
2019-03-04T05:57:22.924Z,95033.38
2019-03-04T05:59:51.528Z,95034.90
2019-03-04T06:02:20.313Z,95027.99
2019-03-04T06:04:49.038Z,95033.61
2019-03-04T06:10:00.702Z,95023.58
2019-03-04T06:12:29.780Z,95024.21
2019-03-04T06:14:58.483Z,95014.47
2019-03-04T06:17:27.315Z,95007.42
2019-03-04T06:19:56.006Z,95001.83
2019-03-04T06:22:24.759Z,94995.34
2019-03-04T06:25:12.630Z,94998.52
2019-03-04T06:27:41.410Z,94999.69
2019-03-04T06:30:49.387Z,95003.91
2019-03-04T06:33:37.340Z,95014.25
2019-03-04T06:36:06.160Z,95011.39
2019-03-04T06:38:53.909Z,95002.23
2019-03-04T06:41:22.610Z,95008.00
2019-03-04T06:44:10.557Z,95012.39
2019-03-04T06:46:39.232Z,95008.73
2019-03-04T06:49:27.183Z,95011.86
2019-03-04T06:51:55.933Z,95012.05
2019-03-04T06:55:04.407Z,95017.48
2019-03-04T06:57:33.057Z,95015.59
2019-03-04T07:00:40.281Z,95021.12
2019-03-04T07:03:28.097Z,95005.77
2019-03-04T07:05:56.794Z,95004.18
2019-03-04T07:09:05.320Z,94995.91
2019-03-04T07:11:33.983Z,95000.16
2019-03-04T07:14:02.676Z,94995.53
2019-03-04T07:16:50.431Z,95005.08
2019-03-04T07:19:19.125Z,95015.59
2019-03-04T07:21:47.778Z,95012.05
2019-03-04T07:24:35.610Z,95018.25
2019-03-04T07:27:04.413Z,95023.39
2019-03-04T07:29:33.108Z,95025.99
2019-03-04T07:32:01.820Z,95031.23
2019-03-04T07:34:30.420Z,95039.08
2019-03-04T07:36:59.098Z,95031.48
2019-03-04T07:39:27.867Z,95041.14
2019-03-04T07:44:44.243Z,95045.64
2019-03-04T07:47:12.874Z,95046.19
2019-03-04T07:49:41.590Z,95052.00
2019-03-04T07:52:10.260Z,95068.31
2019-03-04T07:54:38.959Z,95062.77
2019-03-04T07:57:07.599Z,95080.14
2019-03-04T07:59:55.470Z,95079.66
2019-03-04T08:02:24.122Z,95090.60
2019-03-04T08:04:52.744Z,95085.08
2019-03-04T08:08:01.303Z,95101.31
2019-03-04T08:11:08.522Z,95096.92
2019-03-04T08:14:15.736Z,95091.22
2019-03-04T08:17:03.499Z,95104.51
2019-03-04T08:19:51.427Z,95112.54
2019-03-04T08:22:39.184Z,95118.78
2019-03-04T08:25:47.637Z,95120.91
2019-03-04T08:28:16.377Z,95138.45
2019-03-04T08:30:45.219Z,95145.86
2019-03-04T08:33:13.996Z,95144.94
2019-03-04T08:35:42.671Z,95154.59
2019-03-04T08:38:30.611Z,95153.37
2019-03-04T08:40:59.394Z,95144.67
2019-03-04T08:43:28.092Z,95154.88
2019-03-04T08:45:56.732Z,95160.95
2019-03-04T08:48:25.426Z,95187.94
2019-03-04T08:50:54.091Z,95198.03
2019-03-04T08:53:22.695Z,95225.80
2019-03-04T08:55:51.424Z,95254.25
2019-03-04T08:58:20.129Z,95287.89
2019-03-04T09:01:07.884Z,95296.66
2019-03-04T09:03:55.661Z,95298.89
2019-03-04T09:06:24.349Z,95300.66
2019-03-04T09:08:52.883Z,95303.89
2019-03-04T09:11:21.504Z,95305.52
2019-03-04T09:13:50.114Z,95308.78
2019-03-04T09:16:18.718Z,95319.20
2019-03-04T09:18:47.267Z,95310.33
2019-03-04T09:21:15.738Z,95318.48
2019-03-04T09:23:44.401Z,95328.47
2019-03-04T09:26:13.014Z,95338.17
2019-03-04T09:28:41.760Z,95311.70
2019-03-04T09:31:10.361Z,95314.02
2019-03-04T09:33:38.913Z,95307.05
2019-03-04T09:36:07.486Z,95318.18
2019-03-04T09:38:36.096Z,95316.42
2019-03-04T09:41:04.691Z,95301.20
2019-03-04T09:43:33.153Z,95315.43
2019-03-04T09:46:01.796Z,95310.34
2019-03-04T09:48:30.405Z,95329.95
2019-03-04T09:50:59.059Z,95316.03
2019-03-04T09:53:27.624Z,95281.64
2019-03-04T09:55:56.103Z,95287.12
2019-03-04T09:58:24.691Z,95249.80
2019-03-04T10:01:33.173Z,95242.62
2019-03-04T10:04:41.645Z,95250.88
2019-03-04T10:07:48.805Z,95259.22
2019-03-04T10:10:57.226Z,95236.70
2019-03-04T10:14:04.593Z,95226.73
2019-03-04T10:17:11.811Z,95177.83
2019-03-04T10:20:18.945Z,95152.13
2019-03-04T10:23:26.107Z,95136.36
2019-03-04T10:26:34.657Z,95163.76
2019-03-04T10:29:41.771Z,95172.95
2019-03-04T10:32:48.919Z,95146.91
2019-03-04T10:35:57.451Z,95192.83
2019-03-04T10:39:05.893Z,95199.98
2019-03-04T10:42:13.143Z,95175.18
2019-03-04T10:45:20.218Z,95186.78
2019-03-04T10:48:08.170Z,95207.77
2019-03-04T10:50:36.895Z,95202.17
2019-03-04T10:53:45.371Z,95198.05
2019-03-04T10:56:14.059Z,95199.97
2019-03-04T10:58:42.813Z,95181.50
2019-03-04T11:01:11.458Z,95200.41
2019-03-04T11:03:40.074Z,95216.88
2019-03-04T11:06:08.740Z,95207.98
2019-03-04T11:08:37.441Z,95229.05
2019-03-04T11:11:06.141Z,95228.13
2019-03-04T11:13:34.784Z,95223.67
2019-03-04T11:21:24.971Z,95192.92
2019-03-04T11:23:53.678Z,95198.28
2019-03-04T11:26:22.400Z,95152.79
2019-03-04T11:28:51.161Z,95159.11
2019-03-04T11:34:26.559Z,95195.34
2019-03-04T11:37:14.449Z,95188.30
2019-03-04T11:40:02.280Z,95201.09
2019-03-04T11:42:30.949Z,95210.18
2019-03-04T11:44:59.644Z,95208.20
2019-03-04T11:47:28.415Z,95170.54
2019-03-04T11:49:57.077Z,95186.59
2019-03-04T11:52:25.828Z,95167.80
2019-03-04T11:55:13.752Z,95171.83
2019-03-04T11:57:42.401Z,95166.05
2019-03-04T12:05:53.766Z,95163.42
2019-03-04T12:08:22.432Z,95180.36
2019-03-04T12:11:10.391Z,95206.14
2019-03-04T12:13:39.024Z,95191.09
2019-03-04T12:16:07.761Z,95224.25
2019-03-04T12:21:31.218Z,95240.58
2019-03-04T12:24:19.175Z,95195.29
2019-03-04T12:32:28.946Z,95190.34
2019-03-04T12:34:57.657Z,95191.53
2019-03-04T12:37:26.342Z,95195.97
2019-03-04T12:39:54.955Z,95189.08
2019-03-04T12:42:42.757Z,95181.72
2019-03-04T12:45:51.301Z,95172.98
2019-03-04T12:48:39.253Z,95193.63
2019-03-04T12:51:07.936Z,95186.38
2019-03-04T12:53:55.894Z,95208.58
2019-03-04T12:56:24.581Z,95172.39
2019-03-04T12:58:53.270Z,95173.22
2019-03-04T13:01:22.025Z,95168.55
2019-03-04T13:03:50.744Z,95166.91
2019-03-04T13:06:19.418Z,95165.97
2019-03-04T13:09:14.179Z,95164.29
2019-03-04T13:11:37.730Z,95181.86
2019-03-04T13:14:46.184Z,95193.19
2019-03-04T13:17:14.811Z,95154.25
2019-03-04T13:19:43.414Z,95190.09
2019-03-04T13:22:31.203Z,95152.61
2019-03-04T13:24:59.983Z,95163.53
2019-03-04T13:27:47.902Z,95147.19
2019-03-04T13:30:56.363Z,95140.34
2019-03-04T13:33:44.127Z,95135.80
2019-03-04T13:36:12.914Z,95116.13
2019-03-04T13:39:00.780Z,95118.27
2019-03-04T13:41:29.483Z,95113.73
2019-03-04T13:43:58.169Z,95124.44
2019-03-04T13:46:46.081Z,95116.52
2019-03-04T13:49:54.552Z,95139.42
2019-03-04T13:52:23.194Z,95122.95
2019-03-04T13:54:51.899Z,95089.41
2019-03-04T13:57:39.832Z,95097.47
2019-03-04T14:00:48.293Z,95086.70
2019-03-04T14:03:16.947Z,95097.30
2019-03-04T14:05:45.677Z,95095.86
2019-03-04T14:08:47.687Z,95093.22
2019-03-04T14:11:04.024Z,95117.52
2019-03-04T14:13:51.800Z,95092.89
2019-03-04T14:16:39.756Z,95111.99
2019-03-04T14:19:27.668Z,95086.15
2019-03-04T14:21:56.349Z,95097.34
2019-03-04T14:24:25.062Z,95104.30
2019-03-04T14:26:53.638Z,95101.28
2019-03-04T14:29:22.255Z,95081.12
2019-03-04T14:31:50.916Z,95103.41
2019-03-04T14:34:19.674Z,95091.16
2019-03-04T14:36:48.358Z,95081.36
2019-03-04T14:39:17.113Z,95076.56
2019-03-04T14:41:45.759Z,95095.65
2019-03-04T14:44:14.439Z,95098.20
2019-03-04T14:46:43.188Z,95092.34
2019-03-04T14:49:31.094Z,95111.20
2019-03-04T14:52:19.088Z,95075.27
2019-03-04T14:54:47.829Z,95104.25
2019-03-04T14:57:35.650Z,95096.65
2019-03-04T15:00:44.140Z,95108.20
2019-03-04T15:03:20.893Z,95095.78
2019-03-04T15:05:43.424Z,95108.94
2019-03-04T15:08:31.547Z,95114.81
2019-03-04T15:11:00.294Z,95091.41
2019-03-04T15:13:48.247Z,95103.95
2019-03-04T15:16:36.081Z,95084.52
2019-03-04T15:19:04.801Z,95082.72
2019-03-04T15:21:33.487Z,95126.20
2019-03-04T15:24:21.372Z,95095.62
2019-03-04T15:26:50.291Z,95106.34
2019-03-04T15:29:19.354Z,95099.23
2019-03-04T15:31:47.996Z,95123.62
2019-03-04T15:34:56.472Z,95094.55
2019-03-04T15:40:33.673Z,95137.77
2019-03-04T15:45:36.871Z,95144.88
2019-03-04T15:48:05.658Z,95132.25
2019-03-04T15:50:34.342Z,95153.37
2019-03-04T15:53:02.990Z,95141.06
2019-03-04T15:55:31.788Z,95177.99
2019-03-04T15:58:19.738Z,95177.09
2019-03-04T16:00:48.443Z,95170.92
2019-03-04T16:03:17.088Z,95167.67
2019-03-04T16:05:45.790Z,95150.64
2019-03-04T16:08:14.429Z,95204.55
2019-03-04T16:10:43.172Z,95192.12
2019-03-04T16:13:11.855Z,95224.86
2019-03-04T16:16:20.345Z,95220.20
2019-03-04T16:18:49.126Z,95250.10
2019-03-04T16:21:37.028Z,95286.03
2019-03-04T16:24:24.788Z,95307.58
2019-03-04T16:27:12.835Z,95301.69
2019-03-04T16:29:41.487Z,95324.36
2019-03-04T16:32:10.254Z,95341.36
2019-03-04T16:34:39.117Z,95343.33
2019-03-04T16:37:26.960Z,95360.30
2019-03-04T16:39:55.745Z,95359.03
2019-03-04T16:42:24.379Z,95354.93
2019-03-04T16:44:53.131Z,95420.05
2019-03-04T16:47:21.837Z,95390.77
2019-03-04T16:49:57.525Z,95400.45
2019-03-04T16:53:06.076Z,95390.52
2019-03-04T16:58:53.407Z,95415.61
2019-03-04T17:02:01.945Z,95393.45
2019-03-04T17:04:49.742Z,95391.67
2019-03-04T17:07:18.560Z,95403.90
2019-03-04T17:09:47.311Z,95413.31
2019-03-04T17:12:16.157Z,95417.39
2019-03-04T17:14:44.873Z,95394.45
2019-03-04T17:17:32.894Z,95437.75
2019-03-04T17:20:41.349Z,95410.23
2019-03-04T17:23:10.170Z,95408.42
2019-03-04T17:28:33.667Z,95409.72
2019-03-04T17:31:02.377Z,95402.32
2019-03-04T17:33:50.267Z,95403.57
2019-03-04T17:36:19.098Z,95429.84
2019-03-04T17:38:47.718Z,95419.89
2019-03-04T17:41:35.878Z,95445.15
2019-03-04T17:47:12.662Z,95451.50
2019-03-04T17:50:00.636Z,95463.75
2019-03-04T17:57:58.014Z,95513.22
2019-03-04T18:01:06.443Z,95524.20
2019-03-04T18:03:35.122Z,95538.72
2019-03-04T18:08:56.992Z,95538.45
2019-03-04T18:11:25.840Z,95545.61
2019-03-04T18:14:13.796Z,95552.48
2019-03-04T18:17:01.816Z,95558.88
2019-03-04T18:19:30.636Z,95562.67
2019-03-04T18:22:39.201Z,95564.73
2019-03-04T18:25:46.534Z,95564.70
2019-03-04T18:28:57.746Z,95560.11
2019-03-04T18:35:05.165Z,95573.61
2019-03-04T18:38:13.695Z,95573.59
2019-03-04T18:41:20.855Z,95592.44
2019-03-04T18:44:28.053Z,95588.87
2019-03-04T18:47:35.386Z,95602.86
2019-03-04T18:50:23.428Z,95603.63
2019-03-04T18:53:11.402Z,95606.67
2019-03-04T18:55:40.194Z,95600.02
2019-03-04T18:58:08.877Z,95599.53
2019-03-04T19:00:37.697Z,95601.53
2019-03-04T19:03:06.537Z,95601.03
2019-03-04T19:05:35.444Z,95603.31
2019-03-04T19:08:04.130Z,95608.13
2019-03-04T19:10:32.927Z,95614.75
2019-03-04T19:13:01.746Z,95621.39
2019-03-04T19:15:30.807Z,95631.05
2019-03-04T19:17:59.823Z,95621.11
2019-03-04T19:20:28.587Z,95636.38
2019-03-04T19:22:57.233Z,95655.47
2019-03-04T19:25:26.109Z,95648.06
2019-03-04T19:27:54.877Z,95651.88
2019-03-04T19:30:23.541Z,95667.41
2019-03-04T19:35:45.591Z,95669.89
2019-03-04T19:38:33.578Z,95670.39
2019-03-04T19:41:21.589Z,95673.70
2019-03-04T19:43:50.548Z,95679.73
2019-03-04T19:46:19.203Z,95670.83
2019-03-04T19:48:47.910Z,95663.16
2019-03-04T19:51:35.894Z,95667.23
2019-03-04T19:54:44.412Z,95670.80
2019-03-04T19:57:13.004Z,95676.39
2019-03-04T19:59:41.760Z,95680.45
2019-03-04T20:02:10.589Z,95687.11
2019-03-04T20:07:13.948Z,95703.42
2019-03-04T20:09:42.602Z,95703.49
2019-03-04T20:12:30.594Z,95702.48
2019-03-04T20:14:59.209Z,95710.47
2019-03-04T20:18:07.776Z,95703.09
2019-03-04T20:21:16.291Z,95697.26
2019-03-04T20:23:45.059Z,95701.87
2019-03-04T20:26:13.822Z,95705.94
2019-03-04T20:31:32.050Z,95720.70
2019-03-04T20:34:00.760Z,95713.55
2019-03-04T20:41:58.229Z,95725.11
2019-03-04T20:47:01.332Z,95745.66
2019-03-04T20:49:30.056Z,95738.94
2019-03-04T20:55:26.254Z,95756.58
2019-03-04T20:57:55.044Z,95750.86
2019-03-04T21:01:03.728Z,95751.81
2019-03-04T21:03:35.042Z,95763.48
2019-03-04T21:06:03.177Z,95765.95
2019-03-04T21:08:31.887Z,95770.03
2019-03-04T21:11:00.574Z,95775.64
2019-03-04T21:13:35.324Z,95770.03
2019-03-04T21:16:18.898Z,95774.78
2019-03-04T21:21:21.442Z,95786.78
2019-03-04T21:23:50.245Z,95793.89
2019-03-04T21:26:58.696Z,95786.59
2019-03-04T21:30:07.173Z,95785.28
2019-03-04T21:32:55.261Z,95789.62
2019-03-04T21:36:03.771Z,95803.34
2019-03-04T21:38:52.119Z,95797.44
2019-03-04T21:42:00.610Z,95805.11
2019-03-04T21:45:09.137Z,95811.24
2019-03-04T21:48:17.650Z,95809.22
2019-03-04T21:51:24.872Z,95804.44
2019-03-04T21:54:33.337Z,95805.70
2019-03-04T21:57:41.778Z,95814.53
2019-03-04T22:00:50.268Z,95815.73
2019-03-04T22:03:58.705Z,95814.64
2019-03-04T22:06:27.517Z,95813.64
2019-03-04T22:08:56.305Z,95810.34
2019-03-04T22:11:24.983Z,95816.74
2019-03-04T22:13:53.741Z,95813.45
2019-03-04T22:16:22.462Z,95814.53
2019-03-04T22:31:36.596Z,95831.89
2019-03-04T22:34:24.459Z,95839.30
2019-03-04T22:37:12.414Z,95834.17
2019-03-04T22:40:00.401Z,95842.89
2019-03-04T22:42:29.014Z,95850.22
2019-03-04T22:45:17.017Z,95850.93
2019-03-04T22:47:45.842Z,95852.23
2019-03-04T22:50:54.322Z,95862.72
2019-03-04T22:53:22.967Z,95861.71
2019-03-04T22:55:51.782Z,95862.45
2019-03-04T22:58:39.571Z,95863.99
2019-03-04T23:01:48.051Z,95866.05
2019-03-04T23:04:56.602Z,95877.23
2019-03-04T23:07:44.439Z,95879.52
2019-03-04T23:10:52.910Z,95882.63
2019-03-04T23:14:01.395Z,95884.30
2019-03-04T23:17:09.849Z,95882.73
2019-03-04T23:19:38.507Z,95888.83
2019-03-04T23:22:07.233Z,95889.54
2019-03-04T23:24:35.827Z,95897.12
2019-03-04T23:27:04.441Z,95902.44
2019-03-04T23:29:33.004Z,95898.31
2019-03-04T23:32:41.638Z,95909.50
2019-03-04T23:35:50.206Z,95908.00
2019-03-04T23:44:00.857Z,95917.70
2019-03-04T23:46:29.468Z,95915.77
2019-03-04T23:48:58.130Z,95918.31
2019-03-04T23:51:27.209Z,95921.20
2019-03-04T23:53:55.760Z,95919.40
2019-03-04T23:56:24.399Z,95917.56
2019-03-04T23:58:52.892Z,95928.70
